GABS/BKO METAR and TAF weather

Enter ICAO airport designator
Station Type Date Time Source
GABS METAR 2022/06/26 07:30 UTC NOAA

GABS 260730Z 21004KT 180V240 9999 FEW020 24/23 Q1013 NOSIG


Station Type Date Time Source
GABS Decoded METAR 2022/06/26 07:30 UTC NOAA

Bamako / Senou, Mali (GABS) 12-32N 007-57W 381M
Jun 26, 2022 - 03:30 AM EDT / 2022.06.26 0730 UTC
Wind: from the SSW (210 degrees) at 5 MPH (4 KT) (direction variable):0
Visibility: greater than 7 mile(s):0
Sky conditions: mostly clear
Temperature: 75 F (24 C)
Dew Point: 73 F (23 C)
Relative Humidity: 94%
Pressure (altimeter): 29.91 in. Hg (1013 hPa)
ob: GABS 260730Z 21004KT 180V240 9999 FEW020 24/23 Q1013 NOSIG
cycle: 7

Station Type Date Time Source
GABS TAF 2022/06/26 06:42 UTC NOAA

TAF TAF GABS 260530Z 2606/2712 22008KT 9999 FEW025 PROB40
TEMPO 2615/2622 09018G35KT 4000 TSRA BLDU SCT030 FEW033CB

Example: see airport list